createdAt,value
2023-04-21T00:00:01.451Z,9.93
2023-04-21T00:02:04.627Z,11.68
2023-04-21T00:04:07.866Z,10.85
2023-04-21T00:06:10.960Z,11.10
2023-04-21T00:08:14.295Z,10.45
2023-04-21T00:10:17.608Z,9.73
2023-04-21T00:12:21.263Z,9.32
2023-04-21T00:14:25.629Z,9.95
2023-04-21T00:16:28.833Z,10.57
2023-04-21T00:18:32.070Z,10.98
2023-04-21T00:20:34.997Z,10.60
2023-04-21T00:22:37.880Z,12.18
2023-04-21T00:24:40.819Z,12.00
2023-04-21T00:26:43.651Z,11.02
2023-04-21T00:28:46.587Z,11.50
2023-04-21T00:30:51.004Z,11.05
2023-04-21T00:32:54.030Z,11.48
2023-04-21T00:34:58.452Z,12.03
2023-04-21T00:37:01.714Z,11.25
2023-04-21T00:39:04.769Z,11.27
2023-04-21T00:41:07.855Z,11.68
2023-04-21T00:43:13.900Z,11.20
2023-04-21T00:45:16.900Z,11.07
2023-04-21T00:47:21.382Z,10.30
2023-04-21T00:49:26.433Z,10.57
2023-04-21T00:51:30.215Z,9.88
2023-04-21T00:53:33.231Z,9.93
2023-04-21T00:55:36.701Z,9.82
2023-04-21T00:57:40.100Z,10.07
2023-04-21T00:59:43.806Z,10.02
2023-04-21T01:01:46.894Z,9.88
2023-04-21T01:03:53.189Z,9.50
2023-04-21T01:07:59.001Z,9.80
2023-04-21T01:10:01.873Z,9.77
2023-04-21T01:12:07.803Z,9.65
2023-04-21T01:14:10.943Z,10.70
2023-04-21T01:16:17.289Z,10.75
2023-04-21T01:18:20.402Z,10.68
2023-04-21T01:20:25.939Z,10.60
2023-04-21T01:22:32.317Z,11.55
2023-04-21T01:24:39.332Z,12.48
2023-04-21T01:26:42.565Z,11.02
2023-04-21T01:28:45.678Z,11.88
2023-04-21T01:30:48.937Z,10.30
2023-04-21T01:32:52.169Z,10.98
2023-04-21T01:34:56.308Z,11.13
2023-04-21T01:36:59.262Z,11.13
2023-04-21T01:39:04.536Z,10.88
2023-04-21T01:41:07.735Z,11.23
2023-04-21T01:43:10.794Z,10.73
2023-04-21T01:45:13.989Z,11.20
2023-04-21T01:47:17.328Z,11.20
2023-04-21T01:49:20.641Z,10.68
2023-04-21T01:51:24.718Z,10.57
2023-04-21T01:53:27.610Z,12.32
2023-04-21T01:55:32.156Z,11.88
2023-04-21T01:57:34.976Z,12.50
2023-04-21T01:59:38.469Z,12.63
2023-04-21T02:01:41.440Z,11.23
2023-04-21T02:03:44.609Z,9.90
2023-04-21T02:05:47.712Z,11.02
2023-04-21T02:07:50.638Z,11.40
2023-04-21T02:09:53.580Z,11.73
2023-04-21T02:11:58.245Z,12.15
2023-04-21T02:14:01.254Z,12.82
2023-04-21T02:16:13.305Z,12.38
2023-04-21T02:18:17.198Z,11.52
2023-04-21T02:20:20.531Z,11.15
2023-04-21T02:22:23.474Z,10.65
2023-04-21T02:24:26.513Z,12.90
2023-04-21T02:26:30.063Z,12.98
2023-04-21T02:28:34.456Z,12.43
2023-04-21T02:30:37.434Z,12.30
2023-04-21T02:32:40.550Z,12.77
2023-04-21T02:34:43.724Z,11.68
2023-04-21T02:36:46.703Z,12.45
2023-04-21T02:38:49.535Z,12.52
2023-04-21T02:40:52.556Z,11.52
2023-04-21T02:42:55.334Z,11.52
2023-04-21T02:44:59.692Z,11.32
2023-04-21T02:47:03.630Z,11.80
2023-04-21T02:49:06.515Z,11.73
2023-04-21T02:51:12.813Z,12.00
2023-04-21T02:53:16.944Z,12.13
2023-04-21T02:55:20.023Z,12.25
2023-04-21T02:57:22.871Z,11.30
2023-04-21T02:59:26.042Z,13.00
2023-04-21T03:01:30.623Z,11.88
2023-04-21T03:03:34.165Z,12.05
2023-04-21T03:05:37.218Z,11.18
2023-04-21T03:07:40.070Z,12.00
2023-04-21T03:09:43.213Z,12.05
2023-04-21T03:11:46.151Z,12.10
2023-04-21T03:13:49.194Z,12.02
2023-04-21T03:15:52.561Z,11.57
2023-04-21T03:17:56.926Z,11.13
2023-04-21T03:20:01.440Z,11.80
2023-04-21T03:22:04.592Z,11.90
2023-04-21T03:24:07.875Z,11.98
2023-04-21T03:26:11.349Z,12.35
2023-04-21T03:28:16.124Z,12.48
2023-04-21T03:30:18.975Z,12.20
2023-04-21T03:32:22.240Z,12.15
2023-04-21T03:34:27.583Z,12.38
2023-04-21T03:36:32.364Z,12.30
2023-04-21T03:38:35.504Z,12.25
2023-04-21T03:40:38.463Z,13.60
2023-04-21T03:42:41.964Z,13.52
2023-04-21T03:44:44.885Z,12.02
2023-04-21T03:46:47.810Z,13.00
2023-04-21T03:48:50.783Z,11.88
2023-04-21T03:50:55.136Z,11.73
2023-04-21T03:52:58.330Z,12.63
2023-04-21T03:55:01.223Z,11.65
2023-04-21T03:57:04.596Z,11.73
2023-04-21T03:59:07.556Z,11.95
2023-04-21T04:01:10.614Z,12.02
2023-04-21T04:03:13.704Z,12.07
2023-04-21T04:05:16.915Z,12.05
2023-04-21T04:07:21.744Z,12.07
2023-04-21T04:09:24.701Z,12.18
2023-04-21T04:11:27.494Z,10.50
2023-04-21T04:13:30.574Z,12.00
2023-04-21T04:15:33.619Z,12.05
2023-04-21T04:17:36.676Z,11.55
2023-04-21T04:19:39.744Z,12.48
2023-04-21T04:21:42.613Z,12.32
2023-04-21T04:23:47.124Z,12.25
2023-04-21T04:25:50.085Z,12.93
2023-04-21T04:27:53.944Z,13.93
2023-04-21T04:29:57.892Z,14.45
2023-04-21T04:32:02.120Z,14.05
2023-04-21T04:34:05.277Z,13.13
2023-04-21T04:36:08.882Z,14.57
2023-04-21T04:38:13.061Z,13.95
2023-04-21T04:40:17.428Z,12.80
2023-04-21T04:42:20.690Z,14.82
2023-04-21T04:44:26.110Z,13.73
2023-04-21T04:46:29.154Z,12.43
2023-04-21T04:48:32.606Z,13.07
2023-04-21T04:50:35.785Z,11.82
2023-04-21T04:52:39.289Z,11.23
2023-04-21T04:54:42.499Z,12.32
2023-04-21T04:56:46.881Z,11.48
2023-04-21T04:58:49.840Z,12.82
2023-04-21T05:00:52.834Z,12.23
2023-04-21T05:02:56.161Z,10.13
2023-04-21T05:04:59.295Z,12.25
2023-04-21T05:07:02.276Z,11.52
2023-04-21T05:09:05.269Z,12.70
2023-04-21T05:11:08.512Z,11.77
2023-04-21T05:13:12.990Z,17.67
2023-04-21T05:15:15.997Z,17.67
2023-04-21T05:17:18.954Z,19.50
2023-04-21T05:19:21.943Z,17.73
2023-04-21T05:21:27.969Z,17.85
2023-04-21T05:23:31.254Z,17.08
2023-04-21T05:25:34.577Z,19.23
2023-04-21T05:27:37.532Z,20.02
2023-04-21T05:29:41.979Z,20.30
2023-04-21T05:31:44.985Z,20.80
2023-04-21T05:33:48.236Z,18.83
2023-04-21T05:35:51.532Z,19.98
2023-04-21T05:37:54.478Z,20.73
2023-04-21T05:39:57.754Z,19.98
2023-04-21T05:42:00.962Z,20.10
2023-04-21T05:44:04.009Z,19.95
2023-04-21T05:46:14.340Z,20.60
2023-04-21T05:48:17.444Z,18.75
2023-04-21T05:50:20.676Z,18.23
2023-04-21T05:52:23.662Z,19.55
2023-04-21T05:54:26.742Z,19.77
2023-04-21T05:56:29.681Z,18.90
2023-04-21T05:58:33.801Z,19.95
2023-04-21T06:00:36.694Z,20.10
2023-04-21T06:02:41.773Z,21.23
2023-04-21T06:04:45.280Z,22.33
2023-04-21T06:06:48.553Z,25.17
2023-04-21T06:08:51.774Z,25.02
2023-04-21T06:10:54.822Z,20.95
2023-04-21T06:12:57.739Z,18.92
2023-04-21T06:15:00.790Z,23.35
2023-04-21T06:17:03.743Z,23.58
2023-04-21T06:19:08.015Z,22.02
2023-04-21T06:21:11.560Z,19.88
2023-04-21T06:23:14.574Z,19.88
2023-04-21T06:25:17.828Z,19.70
2023-04-21T06:27:20.928Z,18.67
2023-04-21T06:29:23.783Z,17.13
2023-04-21T06:31:27.454Z,16.65
2023-04-21T06:33:30.873Z,16.35
2023-04-21T06:35:35.508Z,16.38
2023-04-21T06:37:38.822Z,17.00
2023-04-21T06:39:42.141Z,15.98
2023-04-21T06:41:45.189Z,15.98
2023-04-21T06:43:48.306Z,16.35
2023-04-21T06:45:51.352Z,15.45
2023-04-21T06:47:54.472Z,16.25
2023-04-21T06:49:57.441Z,16.42
2023-04-21T06:52:01.802Z,15.60
2023-04-21T06:54:05.820Z,16.52
2023-04-21T06:56:08.678Z,15.60
2023-04-21T06:58:11.895Z,16.38
2023-04-21T07:00:15.701Z,16.67
2023-04-21T07:02:18.643Z,16.55
2023-04-21T07:04:21.996Z,17.05
2023-04-21T07:06:24.903Z,18.02
2023-04-21T07:08:29.324Z,16.00
2023-04-21T07:10:32.356Z,17.40
2023-04-21T07:12:35.405Z,17.05
2023-04-21T07:14:38.326Z,17.02
2023-04-21T07:16:41.451Z,16.35
2023-04-21T07:18:44.430Z,17.42
2023-04-21T07:20:47.724Z,16.35
2023-04-21T07:22:50.614Z,16.00
2023-04-21T07:24:54.996Z,17.05
2023-04-21T07:26:58.072Z,16.80
2023-04-21T07:29:01.227Z,17.40
2023-04-21T07:31:04.152Z,16.40
2023-04-21T07:33:07.237Z,16.38
2023-04-21T07:35:10.393Z,16.02
2023-04-21T07:37:13.345Z,16.48
2023-04-21T07:39:16.561Z,16.70
2023-04-21T07:41:21.111Z,16.50
2023-04-21T07:43:25.593Z,16.57
2023-04-21T07:45:28.512Z,16.08
2023-04-21T07:47:31.797Z,14.95
2023-04-21T07:49:34.791Z,14.20
2023-04-21T07:51:37.832Z,14.68
2023-04-21T07:53:41.173Z,14.48
2023-04-21T07:55:44.142Z,14.57
2023-04-21T07:57:49.243Z,13.07
2023-04-21T07:59:52.265Z,13.07
2023-04-21T08:01:55.169Z,13.68
2023-04-21T08:03:58.210Z,14.05
2023-04-21T08:06:01.563Z,13.88
2023-04-21T08:08:05.156Z,13.15
2023-04-21T08:10:09.614Z,14.55
2023-04-21T08:12:12.578Z,13.93
2023-04-21T08:14:17.168Z,15.63
2023-04-21T08:16:20.443Z,14.25
2023-04-21T08:18:23.849Z,12.88
2023-04-21T08:20:27.028Z,11.77
2023-04-21T08:22:29.985Z,11.18
2023-04-21T08:24:33.231Z,10.35
2023-04-21T08:26:36.561Z,10.73
2023-04-21T08:28:39.582Z,10.55
2023-04-21T08:30:43.904Z,10.95
2023-04-21T08:32:47.012Z,10.73
2023-04-21T08:34:50.698Z,11.15
2023-04-21T08:36:53.939Z,10.50
2023-04-21T08:38:56.874Z,10.80
2023-04-21T08:41:00.337Z,11.38
2023-04-21T08:43:03.410Z,10.80
2023-04-21T08:45:07.530Z,9.93
2023-04-21T08:47:13.098Z,10.90
2023-04-21T08:49:20.232Z,10.25
2023-04-21T08:51:24.695Z,9.73
2023-04-21T08:53:28.059Z,8.35
2023-04-21T08:55:33.241Z,9.35
2023-04-21T08:57:36.434Z,10.05
2023-04-21T08:59:39.310Z,8.25
2023-04-21T09:02:08.530Z,9.43
2023-04-21T09:04:19.423Z,9.25
2023-04-21T09:06:22.825Z,9.30
2023-04-21T09:08:27.643Z,9.75
2023-04-21T09:10:30.825Z,9.15
2023-04-21T09:12:33.888Z,9.88
2023-04-21T09:14:36.745Z,9.30
2023-04-21T09:16:39.891Z,9.85
2023-04-21T09:18:44.624Z,9.27
2023-04-21T09:20:50.601Z,10.80
2023-04-21T09:22:53.624Z,9.18
2023-04-21T09:25:00.545Z,9.35
2023-04-21T09:27:05.453Z,9.27
2023-04-21T09:29:09.754Z,9.38
2023-04-21T09:31:20.253Z,8.70
2023-04-21T09:33:30.542Z,9.27
2023-04-21T09:35:36.547Z,9.68
2023-04-21T09:37:44.338Z,8.45
2023-04-21T09:40:03.640Z,8.50
2023-04-21T09:42:11.004Z,9.70
2023-04-21T09:44:13.909Z,8.80
2023-04-21T09:46:18.199Z,8.57
2023-04-21T09:48:26.222Z,9.30
2023-04-21T09:52:39.161Z,8.88
2023-04-21T09:56:54.631Z,8.27
2023-04-21T09:59:01.350Z,9.13
2023-04-21T10:01:05.177Z,8.43
2023-04-21T10:03:12.474Z,8.98
2023-04-21T10:05:16.168Z,8.35
2023-04-21T10:07:19.314Z,7.50
2023-04-21T10:09:24.440Z,8.30
2023-04-21T10:11:29.024Z,8.48
2023-04-21T10:13:33.135Z,8.35
2023-04-21T10:15:39.466Z,10.55
2023-04-21T10:17:44.658Z,8.98
2023-04-21T10:19:52.381Z,8.27
2023-04-21T10:21:57.320Z,8.43
2023-04-21T10:24:00.513Z,7.75
2023-04-21T10:26:09.653Z,8.10
2023-04-21T10:28:18.745Z,8.18
2023-04-21T10:30:23.072Z,8.98
2023-04-21T10:32:39.685Z,7.93
2023-04-21T10:34:42.946Z,7.93
2023-04-21T10:37:20.063Z,8.02
2023-04-21T10:39:27.274Z,7.22
2023-04-21T10:41:31.622Z,7.63
2023-04-21T10:43:49.651Z,7.63
2023-04-21T10:45:53.176Z,7.47
2023-04-21T10:47:56.481Z,7.50
2023-04-21T10:50:00.884Z,8.05
2023-04-21T10:52:06.154Z,7.87
2023-04-21T10:54:14.257Z,7.05
2023-04-21T10:56:18.026Z,7.38
2023-04-21T10:58:26.114Z,7.13
2023-04-21T11:00:30.898Z,7.07
2023-04-21T11:02:38.475Z,7.20
2023-04-21T11:04:49.029Z,7.35
2023-04-21T11:07:09.195Z,6.85
2023-04-21T11:09:12.162Z,7.07
2023-04-21T11:11:27.062Z,7.03
2023-04-21T11:13:33.950Z,7.05
2023-04-21T11:15:38.367Z,7.13
2023-04-21T11:17:43.952Z,7.00
2023-04-21T11:21:50.103Z,8.73
2023-04-21T11:23:54.322Z,7.82
2023-04-21T11:26:00.075Z,7.65
2023-04-21T11:28:04.894Z,7.10
2023-04-21T11:30:09.448Z,7.15
2023-04-21T11:32:14.880Z,7.00
2023-04-21T11:36:23.550Z,6.47
2023-04-21T11:38:26.531Z,6.95
2023-04-21T11:40:29.623Z,7.50
2023-04-21T11:42:32.676Z,7.10
2023-04-21T11:44:37.122Z,7.47
2023-04-21T11:46:46.930Z,6.45
2023-04-21T11:48:59.611Z,6.45
2023-04-21T11:51:02.734Z,6.88
2023-04-21T11:53:06.792Z,6.85
2023-04-21T11:55:15.688Z,6.82
2023-04-21T11:57:19.804Z,6.78
2023-04-21T11:59:27.121Z,7.18
2023-04-21T12:01:29.969Z,6.68
2023-04-21T12:03:33.570Z,6.15
2023-04-21T12:05:38.303Z,6.13
2023-04-21T12:07:43.685Z,7.10
2023-04-21T12:11:56.182Z,6.20
2023-04-21T12:13:59.789Z,7.18
2023-04-21T12:16:04.575Z,6.05
2023-04-21T12:18:14.154Z,7.22
2023-04-21T12:20:18.172Z,6.50
2023-04-21T12:22:23.933Z,6.07
2023-04-21T12:24:27.358Z,6.45
2023-04-21T12:26:30.720Z,6.43
2023-04-21T12:28:34.011Z,6.95
2023-04-21T12:30:39.345Z,6.95
2023-04-21T12:32:44.736Z,6.40
2023-04-21T12:34:47.779Z,6.97
2023-04-21T12:36:50.700Z,6.72
2023-04-21T12:38:55.191Z,5.72
2023-04-21T12:40:58.208Z,6.77
2023-04-21T12:43:01.288Z,6.03
2023-04-21T12:45:05.868Z,6.57
2023-04-21T12:47:08.970Z,6.47
2023-04-21T12:49:12.130Z,6.22
2023-04-21T12:51:15.014Z,6.22
2023-04-21T12:53:18.014Z,6.18
2023-04-21T12:55:22.559Z,6.43
2023-04-21T12:57:25.646Z,6.32
2023-04-21T12:59:29.085Z,6.18
2023-04-21T13:01:32.235Z,6.28
2023-04-21T13:03:35.397Z,5.78
2023-04-21T13:05:38.755Z,5.80
2023-04-21T13:07:41.830Z,6.75
2023-04-21T13:09:44.881Z,6.70
2023-04-21T13:11:49.240Z,6.80
2023-04-21T13:13:52.336Z,5.90
2023-04-21T13:15:55.325Z,6.97
2023-04-21T13:17:58.771Z,7.25
2023-04-21T13:20:01.858Z,6.32
2023-04-21T13:22:04.872Z,6.32
2023-04-21T13:24:08.132Z,5.93
2023-04-21T13:26:11.020Z,6.10
2023-04-21T13:28:15.523Z,5.80
2023-04-21T13:30:18.490Z,6.22
2023-04-21T13:32:21.897Z,5.22
2023-04-21T13:34:24.820Z,5.90
2023-04-21T13:36:27.990Z,5.60
2023-04-21T13:38:31.112Z,5.22
2023-04-21T13:40:34.195Z,5.03
2023-04-21T13:42:37.525Z,5.65
2023-04-21T13:44:42.062Z,5.93
2023-04-21T13:46:45.362Z,6.43
2023-04-21T13:48:48.582Z,5.32
2023-04-21T13:50:52.378Z,6.18
2023-04-21T13:52:55.350Z,6.47
2023-04-21T13:54:58.448Z,5.40
2023-04-21T13:57:02.249Z,6.20
2023-04-21T13:59:06.816Z,5.57
2023-04-21T14:01:11.330Z,6.05
2023-04-21T14:03:14.524Z,5.80
2023-04-21T14:05:18.076Z,5.90
2023-04-21T14:07:23.945Z,5.28
2023-04-21T14:09:28.889Z,5.65
2023-04-21T14:11:31.776Z,6.00
2023-04-21T14:13:41.870Z,5.88
2023-04-21T14:15:51.291Z,5.47
2023-04-21T14:17:56.899Z,6.20
2023-04-21T14:22:02.400Z,5.90
2023-04-21T14:24:05.530Z,6.07
2023-04-21T14:26:08.622Z,5.63
2023-04-21T14:28:11.926Z,5.70
2023-04-21T14:30:15.833Z,6.40
2023-04-21T14:32:20.943Z,6.05
2023-04-21T14:34:26.474Z,5.55
2023-04-21T14:36:29.529Z,5.63
2023-04-21T14:38:34.159Z,5.90
2023-04-21T14:40:37.009Z,5.45
2023-04-21T14:42:41.885Z,5.07
2023-04-21T14:44:44.704Z,5.57
2023-04-21T14:46:56.997Z,5.75
2023-04-21T14:49:08.956Z,6.53
2023-04-21T14:51:13.436Z,5.32
2023-04-21T14:53:16.445Z,5.25
2023-04-21T14:55:19.534Z,5.45
2023-04-21T14:57:22.566Z,5.35
2023-04-21T14:59:26.016Z,4.57
2023-04-21T15:01:29.287Z,5.35
2023-04-21T15:03:32.411Z,5.28
2023-04-21T15:05:35.880Z,6.10
2023-04-21T15:07:40.941Z,5.15
2023-04-21T15:09:46.013Z,5.25
2023-04-21T15:11:49.096Z,5.57
2023-04-21T15:13:52.005Z,5.72
2023-04-21T15:15:54.987Z,5.28
2023-04-21T15:17:58.058Z,5.07
2023-04-21T15:20:00.957Z,5.88
2023-04-21T15:22:05.232Z,5.43
2023-04-21T15:24:10.604Z,5.65
2023-04-21T15:26:13.965Z,5.50
2023-04-21T15:28:16.978Z,5.75
2023-04-21T15:30:19.930Z,5.97
2023-04-21T15:32:23.077Z,6.68
2023-04-21T15:34:26.361Z,5.63
2023-04-21T15:36:29.733Z,5.47
2023-04-21T15:38:32.968Z,5.05
2023-04-21T15:40:46.411Z,5.05
2023-04-21T15:42:56.423Z,5.63
2023-04-21T15:44:59.462Z,5.30
2023-04-21T15:47:02.435Z,5.50
2023-04-21T15:49:05.962Z,5.63
2023-04-21T15:51:09.101Z,5.28
2023-04-21T15:53:12.311Z,6.10
2023-04-21T15:55:15.631Z,5.25
2023-04-21T15:57:20.548Z,5.13
2023-04-21T15:59:24.500Z,5.88
2023-04-21T16:01:28.994Z,6.20
2023-04-21T16:03:32.536Z,5.10
2023-04-21T16:05:35.771Z,5.20
2023-04-21T16:07:38.795Z,5.35
2023-04-21T16:09:42.350Z,5.47
2023-04-21T16:11:45.737Z,5.85
2023-04-21T16:13:50.915Z,5.60
2023-04-21T16:15:53.978Z,5.60
2023-04-21T16:17:57.156Z,5.20
2023-04-21T16:20:00.202Z,5.32
2023-04-21T16:22:07.363Z,5.32
2023-04-21T16:24:11.299Z,5.85
2023-04-21T16:26:14.752Z,5.15
2023-04-21T16:28:17.857Z,5.00
2023-04-21T16:30:22.760Z,5.28
2023-04-21T16:32:26.157Z,5.70
2023-04-21T16:34:29.322Z,5.28
2023-04-21T16:36:32.806Z,5.63
2023-04-21T16:38:35.926Z,5.15
2023-04-21T16:40:38.880Z,5.65
2023-04-21T16:42:42.122Z,4.78
2023-04-21T16:44:45.331Z,5.25
2023-04-21T16:46:49.816Z,5.50
2023-04-21T16:48:53.012Z,5.80
2023-04-21T16:50:56.134Z,5.93
2023-04-21T16:52:59.096Z,6.35
2023-04-21T16:55:02.329Z,6.13
2023-04-21T16:57:05.163Z,6.45
2023-04-21T16:59:08.393Z,6.20
2023-04-21T17:01:11.411Z,6.10
2023-04-21T17:03:16.448Z,6.25
2023-04-21T17:05:19.464Z,5.85
2023-04-21T17:07:22.524Z,6.07
2023-04-21T17:09:25.491Z,5.15
2023-04-21T17:11:29.121Z,5.93
2023-04-21T17:13:32.212Z,5.72
2023-04-21T17:15:35.243Z,5.97
2023-04-21T17:17:45.117Z,5.60
2023-04-21T17:19:49.680Z,5.80
2023-04-21T17:21:52.481Z,5.55
2023-04-21T17:23:55.716Z,5.60
2023-04-21T17:25:58.701Z,5.55
2023-04-21T17:28:02.151Z,5.75
2023-04-21T17:30:06.198Z,4.97
2023-04-21T17:32:09.286Z,4.90
2023-04-21T17:34:12.260Z,5.53
2023-04-21T17:36:17.239Z,5.38
2023-04-21T17:38:20.258Z,5.97
2023-04-21T17:40:23.332Z,5.15
2023-04-21T17:42:26.384Z,5.75
2023-04-21T17:44:29.323Z,6.13
2023-04-21T17:46:32.425Z,5.90
2023-04-21T17:48:35.656Z,4.93
2023-04-21T17:50:38.695Z,4.95
2023-04-21T17:52:43.108Z,5.32
2023-04-21T17:54:46.562Z,5.30
2023-04-21T17:56:49.938Z,5.22
2023-04-21T17:58:52.837Z,5.35
2023-04-21T18:00:56.014Z,5.72
2023-04-21T18:02:59.028Z,5.43
2023-04-21T18:05:02.221Z,5.80
2023-04-21T18:07:05.198Z,5.43
2023-04-21T18:09:10.132Z,5.57
2023-04-21T18:11:13.123Z,5.28
2023-04-21T18:13:16.095Z,5.80
2023-04-21T18:15:19.710Z,6.18
2023-04-21T18:17:23.620Z,7.43
2023-04-21T18:19:26.477Z,7.05
2023-04-21T18:21:29.608Z,6.78
2023-04-21T18:23:32.501Z,7.40
2023-04-21T18:25:42.581Z,8.55
2023-04-21T18:27:45.983Z,8.00
2023-04-21T18:29:49.454Z,7.65
2023-04-21T18:31:52.596Z,6.35
2023-04-21T18:33:56.145Z,6.68
2023-04-21T18:35:59.315Z,7.05
2023-04-21T18:38:02.351Z,7.40
2023-04-21T18:40:06.270Z,6.47
2023-04-21T18:42:11.154Z,6.30
2023-04-21T18:44:14.039Z,8.10
2023-04-21T18:46:17.038Z,8.25
2023-04-21T18:48:20.073Z,8.60
2023-04-21T18:50:23.113Z,8.35
2023-04-21T18:52:26.110Z,8.38
2023-04-21T18:54:29.024Z,8.60
2023-04-21T18:56:33.048Z,9.23
2023-04-21T18:58:37.571Z,9.90
2023-04-21T19:00:40.590Z,9.60
2023-04-21T19:02:44.869Z,10.45
2023-04-21T19:04:47.948Z,10.18
2023-04-21T19:06:50.989Z,10.50
2023-04-21T19:08:53.887Z,9.88
2023-04-21T19:10:56.793Z,10.07
2023-04-21T19:12:59.643Z,9.30
2023-04-21T19:15:04.883Z,9.82
2023-04-21T19:17:07.724Z,11.45
2023-04-21T19:19:11.164Z,10.88
2023-04-21T19:21:14.438Z,10.45
2023-04-21T19:23:17.441Z,10.65
2023-04-21T19:25:20.405Z,10.48
2023-04-21T19:27:23.979Z,10.30
2023-04-21T19:29:26.892Z,10.82
2023-04-21T19:31:31.482Z,10.18
2023-04-21T19:33:34.454Z,10.60
2023-04-21T19:35:37.647Z,10.38
2023-04-21T19:37:41.024Z,9.75
2023-04-21T19:39:43.997Z,9.00
2023-04-21T19:41:46.920Z,9.32
2023-04-21T19:43:49.772Z,8.90
2023-04-21T19:45:52.562Z,9.40
2023-04-21T19:47:57.031Z,8.85
2023-04-21T19:50:00.166Z,9.57
2023-04-21T19:52:02.963Z,8.40
2023-04-21T19:54:11.527Z,9.57
2023-04-21T19:56:15.332Z,8.63
2023-04-21T19:58:32.123Z,8.88
2023-04-21T20:00:41.982Z,9.13
2023-04-21T20:02:45.053Z,8.70
2023-04-21T20:04:51.095Z,8.90
2023-04-21T20:06:54.257Z,10.00
2023-04-21T20:08:57.201Z,9.43
2023-04-21T20:11:00.159Z,9.32
2023-04-21T20:13:03.235Z,9.70
2023-04-21T20:15:07.330Z,8.95
2023-04-21T20:17:10.257Z,9.48
2023-04-21T20:19:13.126Z,9.10
2023-04-21T20:21:17.618Z,9.55
2023-04-21T20:23:20.778Z,9.63
2023-04-21T20:25:23.925Z,9.02
2023-04-21T20:27:27.084Z,9.93
2023-04-21T20:29:30.368Z,11.18
2023-04-21T20:31:33.603Z,11.32
2023-04-21T20:33:36.995Z,12.13
2023-04-21T20:35:44.188Z,12.60
2023-04-21T20:37:48.718Z,11.98
2023-04-21T20:39:51.638Z,11.82
2023-04-21T20:42:04.962Z,11.13
2023-04-21T20:44:15.158Z,10.15
2023-04-21T20:46:19.047Z,11.10
2023-04-21T20:48:22.211Z,10.57
2023-04-21T20:50:26.244Z,11.27
2023-04-21T20:52:29.485Z,11.85
2023-04-21T20:54:35.081Z,11.20
2023-04-21T20:56:38.152Z,11.07
2023-04-21T20:58:40.993Z,10.98
2023-04-21T21:00:43.984Z,11.43
2023-04-21T21:02:47.028Z,10.18
2023-04-21T21:04:50.412Z,11.45
2023-04-21T21:06:53.368Z,12.50
2023-04-21T21:08:56.397Z,12.45
2023-04-21T21:11:00.815Z,12.55
2023-04-21T21:13:03.974Z,12.65
2023-04-21T21:15:08.187Z,11.88
2023-04-21T21:17:13.304Z,9.32
2023-04-21T21:19:16.393Z,10.30
2023-04-21T21:21:19.460Z,9.35
2023-04-21T21:23:22.474Z,10.05
2023-04-21T21:25:25.566Z,9.60
2023-04-21T21:27:29.963Z,9.98
2023-04-21T21:29:32.935Z,9.63
2023-04-21T21:31:36.048Z,9.57
2023-04-21T21:33:39.172Z,9.90
2023-04-21T21:35:42.956Z,9.60
2023-04-21T21:37:46.093Z,9.60
2023-04-21T21:39:49.007Z,9.63
2023-04-21T21:41:51.944Z,9.85
2023-04-21T21:43:56.272Z,10.55
2023-04-21T21:45:59.303Z,10.13
2023-04-21T21:48:02.203Z,10.57
2023-04-21T21:50:06.145Z,10.38
2023-04-21T21:52:09.272Z,10.07
2023-04-21T21:54:12.249Z,9.88
2023-04-21T21:56:15.236Z,9.80
2023-04-21T21:58:18.316Z,9.68
2023-04-21T22:00:22.594Z,9.90
2023-04-21T22:02:25.902Z,9.73
2023-04-21T22:04:28.918Z,11.02
2023-04-21T22:06:34.466Z,11.40
2023-04-21T22:10:40.153Z,10.27
2023-04-21T22:12:43.308Z,10.32
2023-04-21T22:14:47.417Z,11.90
2023-04-21T22:16:53.034Z,9.93
2023-04-21T22:18:57.625Z,10.48
2023-04-21T22:21:00.654Z,10.18
2023-04-21T22:23:04.706Z,10.52
2023-04-21T22:25:08.213Z,9.45
2023-04-21T22:27:11.208Z,9.77
2023-04-21T22:29:14.169Z,10.00
2023-04-21T22:31:17.477Z,10.02
2023-04-21T22:33:21.754Z,9.90
2023-04-21T22:35:24.706Z,10.52
2023-04-21T22:37:27.750Z,11.57
2023-04-21T22:39:31.667Z,10.40
2023-04-21T22:41:34.623Z,11.82
2023-04-21T22:43:37.638Z,11.35
2023-04-21T22:45:40.926Z,12.00
2023-04-21T22:47:44.071Z,12.10
2023-04-21T22:49:48.355Z,12.70
2023-04-21T22:51:51.413Z,13.07
2023-04-21T22:53:54.424Z,12.07
2023-04-21T22:55:57.701Z,11.90
2023-04-21T22:58:00.869Z,10.82
2023-04-21T23:00:04.073Z,10.80
2023-04-21T23:02:07.348Z,10.48
2023-04-21T23:04:10.502Z,11.45
2023-04-21T23:06:14.944Z,12.52
2023-04-21T23:08:18.315Z,12.43
2023-04-21T23:10:22.627Z,12.00
2023-04-21T23:12:26.000Z,11.20
2023-04-21T23:14:28.976Z,10.75
2023-04-21T23:16:32.393Z,9.73
2023-04-21T23:18:36.113Z,10.60
2023-04-21T23:20:39.073Z,12.07
2023-04-21T23:22:44.256Z,11.57
2023-04-21T23:24:47.210Z,11.45
2023-04-21T23:26:50.149Z,11.82
2023-04-21T23:28:53.236Z,12.57
2023-04-21T23:30:56.116Z,11.20
2023-04-21T23:32:59.542Z,12.27
2023-04-21T23:35:02.429Z,12.45
2023-04-21T23:37:05.375Z,12.75
2023-04-21T23:39:10.264Z,13.98
2023-04-21T23:41:13.253Z,12.32
2023-04-21T23:43:16.163Z,12.65
2023-04-21T23:45:19.066Z,11.18
2023-04-21T23:47:22.141Z,11.73
2023-04-21T23:49:25.200Z,10.57
2023-04-21T23:51:29.112Z,13.27
2023-04-21T23:53:32.118Z,14.70
2023-04-21T23:55:36.802Z,13.38
2023-04-21T23:57:40.027Z,14.30
2023-04-21T23:59:42.987Z,12.32
